createdAt,value
2018-12-05T00:00:54.906Z,7.10
2018-12-05T00:01:54.883Z,7.80
2018-12-05T00:02:54.857Z,6.90
2018-12-05T00:03:54.849Z,7.00
2018-12-05T00:04:54.818Z,7.20
2018-12-05T00:05:54.798Z,7.90
2018-12-05T00:06:54.768Z,7.10
2018-12-05T00:07:54.753Z,6.70
2018-12-05T00:08:54.731Z,7.60
2018-12-05T00:09:54.698Z,7.20
2018-12-05T00:10:54.680Z,7.30
2018-12-05T00:11:54.656Z,7.50
2018-12-05T00:12:54.634Z,6.40
2018-12-05T00:13:54.612Z,7.50
2018-12-05T00:14:54.588Z,6.00
2018-12-05T00:15:54.569Z,5.60
2018-12-05T00:16:54.540Z,5.40
2018-12-05T00:17:54.521Z,5.70
2018-12-05T00:18:54.500Z,6.60
2018-12-05T00:19:54.474Z,5.60
2018-12-05T00:20:54.453Z,4.60
2018-12-05T00:21:54.426Z,4.90
2018-12-05T00:22:54.407Z,6.00
2018-12-05T00:23:54.384Z,4.90
2018-12-05T00:24:54.363Z,4.80
2018-12-05T00:25:54.338Z,5.70
2018-12-05T00:26:54.314Z,5.10
2018-12-05T00:27:54.292Z,5.40
2018-12-05T00:28:54.271Z,4.40
2018-12-05T00:29:54.251Z,4.90
2018-12-05T00:30:54.224Z,6.00
2018-12-05T00:31:54.206Z,6.40
2018-12-05T00:32:54.181Z,9.00
2018-12-05T00:33:54.166Z,6.50
2018-12-05T00:34:54.135Z,6.10
2018-12-05T00:35:54.111Z,6.70
2018-12-05T00:36:54.091Z,7.10
2018-12-05T00:37:54.063Z,4.40
2018-12-05T00:38:54.041Z,6.90
2018-12-05T00:39:54.019Z,6.90
2018-12-05T00:40:54.010Z,7.60
2018-12-05T00:41:53.971Z,6.20
2018-12-05T00:42:53.956Z,4.90
2018-12-05T00:43:53.930Z,5.30
2018-12-05T00:44:53.905Z,5.00
2018-12-05T00:45:53.884Z,6.30
2018-12-05T00:46:53.862Z,6.20
2018-12-05T00:47:53.837Z,5.50
2018-12-05T00:48:53.815Z,6.50
2018-12-05T00:49:53.792Z,4.60
2018-12-05T00:50:53.769Z,6.10
2018-12-05T00:51:53.751Z,7.50
2018-12-05T00:52:53.723Z,6.50
2018-12-05T00:53:53.700Z,6.20
2018-12-05T00:54:53.681Z,5.60
2018-12-05T00:55:53.654Z,8.20
2018-12-05T00:56:53.633Z,6.10
2018-12-05T00:57:53.608Z,5.20
2018-12-05T00:58:53.586Z,6.90
2018-12-05T00:59:53.561Z,6.50
2018-12-05T01:00:53.544Z,5.70
2018-12-05T01:01:53.519Z,5.10
2018-12-05T01:02:53.498Z,4.70
2018-12-05T01:03:53.468Z,5.70
2018-12-05T01:04:53.452Z,5.90
2018-12-05T01:05:53.426Z,4.80
2018-12-05T01:06:53.404Z,8.00
2018-12-05T01:07:53.384Z,6.90
2018-12-05T01:08:53.360Z,6.60
2018-12-05T01:09:53.335Z,4.20
2018-12-05T01:10:53.313Z,6.20
2018-12-05T01:11:53.285Z,7.80
2018-12-05T01:12:53.269Z,6.20
2018-12-05T01:13:53.243Z,7.10
2018-12-05T01:14:53.218Z,7.00
2018-12-05T01:15:53.198Z,8.30
2018-12-05T01:16:53.180Z,7.80
2018-12-05T01:17:53.151Z,5.60
2018-12-05T01:18:53.130Z,6.90
2018-12-05T01:19:53.111Z,5.80
2018-12-05T01:20:53.084Z,5.90
2018-12-05T01:21:53.063Z,7.00
2018-12-05T01:22:53.039Z,8.20
2018-12-05T01:23:53.019Z,3.70
2018-12-05T01:24:52.994Z,6.90
2018-12-05T01:25:52.976Z,6.70
2018-12-05T01:26:52.946Z,6.40
2018-12-05T01:27:52.924Z,6.00
2018-12-05T01:28:52.900Z,4.40
2018-12-05T01:29:52.878Z,7.60
2018-12-05T01:30:52.855Z,6.20
2018-12-05T01:31:52.832Z,6.50
2018-12-05T01:32:52.816Z,4.50
2018-12-05T01:33:52.786Z,5.10
2018-12-05T01:34:52.767Z,6.20
2018-12-05T01:35:52.749Z,6.40
2018-12-05T01:36:52.720Z,6.00
2018-12-05T01:37:52.694Z,6.70
2018-12-05T01:38:52.675Z,6.90
2018-12-05T01:39:52.650Z,5.80
2018-12-05T01:40:52.626Z,7.80
2018-12-05T01:41:52.606Z,7.70
2018-12-05T01:42:52.585Z,7.40
2018-12-05T01:43:52.556Z,6.30
2018-12-05T01:44:52.538Z,7.50
2018-12-05T01:45:52.512Z,7.40
2018-12-05T01:46:52.489Z,6.40
2018-12-05T01:47:52.468Z,7.30
2018-12-05T01:48:52.442Z,6.40
2018-12-05T01:49:52.422Z,6.60
2018-12-05T01:50:52.398Z,6.20
2018-12-05T01:51:52.375Z,6.10
2018-12-05T01:52:52.354Z,4.80
2018-12-05T01:53:52.328Z,4.80
2018-12-05T01:54:52.304Z,5.80
2018-12-05T01:55:52.285Z,6.40
2018-12-05T01:56:52.260Z,6.10
2018-12-05T01:57:52.238Z,4.80
2018-12-05T01:58:52.214Z,5.30
2018-12-05T01:59:52.194Z,4.40
2018-12-05T02:00:52.166Z,7.30
2018-12-05T02:01:52.149Z,5.40
2018-12-05T02:02:52.121Z,6.10
2018-12-05T02:03:52.098Z,6.00
2018-12-05T02:04:52.077Z,8.90
2018-12-05T02:05:52.052Z,5.60
2018-12-05T02:06:52.032Z,10.20
2018-12-05T02:07:52.007Z,6.20
2018-12-05T02:08:51.990Z,5.70
2018-12-05T02:09:51.967Z,5.00
2018-12-05T02:10:51.941Z,7.10
2018-12-05T02:11:51.920Z,7.50
2018-12-05T02:12:51.885Z,8.20
2018-12-05T02:13:51.877Z,7.90
2018-12-05T02:14:51.853Z,5.90
2018-12-05T02:15:51.822Z,5.20
2018-12-05T02:16:51.802Z,5.40
2018-12-05T02:17:51.780Z,7.80
2018-12-05T02:18:51.755Z,8.70
2018-12-05T02:19:51.730Z,5.20
2018-12-05T02:20:51.708Z,5.90
2018-12-05T02:21:51.703Z,6.30
2018-12-05T02:22:51.663Z,5.70
2018-12-05T02:23:51.638Z,6.20
2018-12-05T02:24:51.616Z,7.30
2018-12-05T02:25:51.590Z,5.40
2018-12-05T02:26:51.576Z,6.60
2018-12-05T02:27:51.546Z,5.60
2018-12-05T02:28:51.528Z,6.30
2018-12-05T02:29:51.503Z,3.70
2018-12-05T02:30:51.483Z,5.50
2018-12-05T02:31:51.457Z,5.40
2018-12-05T02:32:51.433Z,4.90
2018-12-05T02:33:51.416Z,7.80
2018-12-05T02:34:51.387Z,5.30
2018-12-05T02:35:51.364Z,7.20
2018-12-05T02:36:51.339Z,6.20
2018-12-05T02:37:51.316Z,5.50
2018-12-05T02:38:51.292Z,6.60
2018-12-05T02:39:51.270Z,8.60
2018-12-05T02:40:51.299Z,6.20
2018-12-05T02:41:51.228Z,7.10
2018-12-05T02:42:51.203Z,5.90
2018-12-05T02:43:51.178Z,7.20
2018-12-05T02:44:51.152Z,7.30
2018-12-05T02:45:51.130Z,4.60
2018-12-05T02:46:51.109Z,6.10
2018-12-05T02:47:51.086Z,6.80
2018-12-05T02:48:51.073Z,4.40
2018-12-05T02:49:51.040Z,7.10
2018-12-05T02:50:51.018Z,6.40
2018-12-05T02:51:50.994Z,7.30
2018-12-05T02:52:50.968Z,6.30
2018-12-05T02:53:50.946Z,5.30
2018-12-05T02:54:50.925Z,5.70
2018-12-05T02:55:50.897Z,8.40
2018-12-05T02:56:50.879Z,5.70
2018-12-05T02:57:50.852Z,7.70
2018-12-05T02:58:50.829Z,7.30
2018-12-05T02:59:50.807Z,8.40
2018-12-05T03:00:50.787Z,6.20
2018-12-05T03:01:50.767Z,6.40
2018-12-05T03:02:50.740Z,5.70
2018-12-05T03:03:50.711Z,7.40
2018-12-05T03:04:50.693Z,6.20
2018-12-05T03:05:50.669Z,6.40
2018-12-05T03:06:50.649Z,6.10
2018-12-05T03:07:50.623Z,6.70
2018-12-05T03:08:50.596Z,5.90
2018-12-05T03:09:50.588Z,6.20
2018-12-05T03:10:50.554Z,7.50
2018-12-05T03:11:50.623Z,5.40
2018-12-05T03:12:50.507Z,7.80
2018-12-05T03:13:50.482Z,6.80
2018-12-05T03:14:50.461Z,5.30
2018-12-05T03:15:50.437Z,4.40
2018-12-05T03:16:50.419Z,6.40
2018-12-05T03:17:50.389Z,5.70
2018-12-05T03:18:50.365Z,4.20
2018-12-05T03:19:50.341Z,6.20
2018-12-05T03:20:50.350Z,6.00
2018-12-05T03:21:50.298Z,6.90
2018-12-05T03:22:50.270Z,5.00
2018-12-05T03:23:50.254Z,8.20
2018-12-05T03:24:50.230Z,9.20
2018-12-05T03:25:50.286Z,5.70
2018-12-05T03:26:50.183Z,8.00
2018-12-05T03:27:50.162Z,6.50
2018-12-05T03:28:50.134Z,5.40
2018-12-05T03:29:50.109Z,8.70
2018-12-05T03:30:50.091Z,6.50
2018-12-05T03:31:50.071Z,5.20
2018-12-05T03:32:50.043Z,8.90
2018-12-05T03:33:50.030Z,5.60
2018-12-05T03:34:49.994Z,9.10
2018-12-05T03:35:49.972Z,6.00
2018-12-05T03:36:49.952Z,6.90
2018-12-05T03:37:49.926Z,6.30
2018-12-05T03:38:49.905Z,7.70
2018-12-05T03:39:49.878Z,5.70
2018-12-05T03:40:49.854Z,7.60
2018-12-05T03:41:49.832Z,8.20
2018-12-05T03:42:49.812Z,8.70
2018-12-05T03:43:49.788Z,7.20
2018-12-05T03:44:49.764Z,6.90
2018-12-05T03:45:49.744Z,6.70
2018-12-05T03:46:49.718Z,7.80
2018-12-05T03:47:49.693Z,8.70
2018-12-05T03:48:49.673Z,5.90
2018-12-05T03:49:49.646Z,7.60
2018-12-05T03:50:49.626Z,7.90
2018-12-05T03:51:49.604Z,6.80
2018-12-05T03:52:49.579Z,5.90
2018-12-05T03:53:49.558Z,6.50
2018-12-05T03:54:49.529Z,7.50
2018-12-05T03:55:49.514Z,5.50
2018-12-05T03:56:49.485Z,8.90
2018-12-05T03:57:49.461Z,6.50
2018-12-05T03:58:49.434Z,6.50
2018-12-05T03:59:49.411Z,5.80
2018-12-05T04:00:49.394Z,7.10
2018-12-05T04:01:49.375Z,8.20
2018-12-05T04:02:49.347Z,8.40
2018-12-05T04:03:49.318Z,5.80
2018-12-05T04:04:49.298Z,7.30
2018-12-05T04:05:49.278Z,8.90
2018-12-05T04:06:49.252Z,8.50
2018-12-05T04:07:49.230Z,5.60
2018-12-05T04:08:49.202Z,7.60
2018-12-05T04:09:49.186Z,5.80
2018-12-05T04:10:49.159Z,7.90
2018-12-05T04:11:49.136Z,7.50
2018-12-05T04:12:49.112Z,5.50
2018-12-05T04:13:49.086Z,9.30
2018-12-05T04:14:49.063Z,6.00
2018-12-05T04:15:49.040Z,8.10
2018-12-05T04:16:49.016Z,5.20
2018-12-05T04:17:49.003Z,6.30
2018-12-05T04:18:48.975Z,6.60
2018-12-05T04:19:48.952Z,6.30
2018-12-05T04:20:48.927Z,6.20
2018-12-05T04:21:48.903Z,6.80
2018-12-05T04:22:48.883Z,6.90
2018-12-05T04:23:48.854Z,7.00
2018-12-05T04:24:48.839Z,6.90
2018-12-05T04:25:48.812Z,7.10
2018-12-05T04:26:48.786Z,7.60
2018-12-05T04:27:48.760Z,9.00
2018-12-05T04:28:48.743Z,8.00
2018-12-05T04:29:48.712Z,9.50
2018-12-05T04:30:49.004Z,7.80
2018-12-05T04:31:48.670Z,7.00
2018-12-05T04:32:48.644Z,6.70
2018-12-05T04:33:48.618Z,9.40
2018-12-05T04:34:48.603Z,7.50
2018-12-05T04:35:48.577Z,9.30
2018-12-05T04:36:48.552Z,6.60
2018-12-05T04:37:48.530Z,10.10
2018-12-05T04:38:48.510Z,9.60
2018-12-05T04:39:48.482Z,9.70
2018-12-05T04:40:48.466Z,9.10
2018-12-05T04:41:48.443Z,7.40
2018-12-05T04:42:48.414Z,6.80
2018-12-05T04:43:48.393Z,7.10
2018-12-05T04:44:48.363Z,7.10
2018-12-05T04:45:48.346Z,6.60
2018-12-05T04:46:48.319Z,10.00
2018-12-05T04:47:48.295Z,8.80
2018-12-05T04:48:48.270Z,7.20
2018-12-05T04:49:48.246Z,6.90
2018-12-05T04:50:48.228Z,9.90
2018-12-05T04:51:48.200Z,7.70
2018-12-05T04:52:48.184Z,9.90
2018-12-05T04:53:48.164Z,8.80
2018-12-05T04:54:48.131Z,11.00
2018-12-05T04:55:48.110Z,7.50
2018-12-05T04:56:48.090Z,6.80
2018-12-05T04:57:48.065Z,7.70
2018-12-05T04:58:48.038Z,8.70
2018-12-05T04:59:48.020Z,10.10
2018-12-05T05:00:47.993Z,8.60
2018-12-05T05:01:47.967Z,8.80
2018-12-05T05:02:47.946Z,8.40
2018-12-05T05:03:47.938Z,6.40
2018-12-05T05:04:47.898Z,7.90
2018-12-05T05:05:47.872Z,7.50
2018-12-05T05:06:47.851Z,9.00
2018-12-05T05:07:47.835Z,10.30
2018-12-05T05:08:47.805Z,10.70
2018-12-05T05:09:47.782Z,9.90
2018-12-05T05:10:47.757Z,11.30
2018-12-05T05:11:47.741Z,10.30
2018-12-05T05:12:47.718Z,7.80
2018-12-05T05:13:47.685Z,8.80
2018-12-05T05:14:47.661Z,7.40
2018-12-05T05:15:47.714Z,8.00
2018-12-05T05:16:47.618Z,9.10
2018-12-05T05:17:47.596Z,9.20
2018-12-05T05:18:47.571Z,7.00
2018-12-05T05:19:47.548Z,8.40
2018-12-05T05:20:47.523Z,9.00
2018-12-05T05:21:47.498Z,7.00
2018-12-05T05:22:47.475Z,11.20
2018-12-05T05:23:47.488Z,9.90
2018-12-05T05:24:47.426Z,9.60
2018-12-05T05:25:47.404Z,8.90
2018-12-05T05:26:47.383Z,9.90
2018-12-05T05:27:47.360Z,11.90
2018-12-05T05:28:47.335Z,10.00
2018-12-05T05:29:47.314Z,10.60
2018-12-05T05:30:47.287Z,9.60
2018-12-05T05:31:47.264Z,9.00
2018-12-05T05:32:47.247Z,8.50
2018-12-05T05:33:47.218Z,8.80
2018-12-05T05:34:47.192Z,8.20
2018-12-05T05:35:47.168Z,11.30
2018-12-05T05:36:47.144Z,10.50
2018-12-05T05:37:47.122Z,8.10
2018-12-05T05:38:47.102Z,11.00
2018-12-05T05:39:47.078Z,10.00
2018-12-05T05:40:47.060Z,11.70
2018-12-05T05:41:47.034Z,12.70
2018-12-05T05:42:47.003Z,14.10
2018-12-05T05:43:46.983Z,10.60
2018-12-05T05:44:46.964Z,12.10
2018-12-05T05:45:46.937Z,11.80
2018-12-05T05:46:46.910Z,14.60
2018-12-05T05:47:46.889Z,14.30
2018-12-05T05:48:46.863Z,13.00
2018-12-05T05:49:46.838Z,13.10
2018-12-05T05:50:46.814Z,12.20
2018-12-05T05:51:46.794Z,9.90
2018-12-05T05:52:46.770Z,12.50
2018-12-05T05:53:46.750Z,13.20
2018-12-05T05:54:46.724Z,14.90
2018-12-05T05:55:46.702Z,16.60
2018-12-05T05:56:46.681Z,13.80
2018-12-05T05:57:46.666Z,18.30
2018-12-05T05:58:46.632Z,16.20
2018-12-05T05:59:46.708Z,15.70
2018-12-05T06:00:46.590Z,12.90
2018-12-05T06:01:46.560Z,15.60
2018-12-05T06:02:46.537Z,14.30
2018-12-05T06:03:46.514Z,15.10
2018-12-05T06:04:46.494Z,14.80
2018-12-05T06:05:46.518Z,16.80
2018-12-05T06:06:46.443Z,11.70
2018-12-05T06:07:46.421Z,12.80
2018-12-05T06:08:46.401Z,11.80
2018-12-05T06:09:46.370Z,12.60
2018-12-05T06:10:46.352Z,14.20
2018-12-05T06:11:46.322Z,13.80
2018-12-05T06:12:46.310Z,10.70
2018-12-05T06:13:46.276Z,17.50
2018-12-05T06:14:46.252Z,12.80
2018-12-05T06:15:46.230Z,14.20
2018-12-05T06:16:46.214Z,11.70
2018-12-05T06:17:46.188Z,10.10
2018-12-05T06:18:46.162Z,11.80
2018-12-05T06:19:46.134Z,14.60
2018-12-05T06:20:46.118Z,10.00
2018-12-05T06:21:46.093Z,10.50
2018-12-05T06:22:46.062Z,11.80
2018-12-05T06:23:46.042Z,11.70
2018-12-05T06:24:46.018Z,14.00
2018-12-05T06:25:45.999Z,10.30
2018-12-05T06:26:45.974Z,11.60
2018-12-05T06:27:45.950Z,9.80
2018-12-05T06:28:45.928Z,11.00
2018-12-05T06:29:45.900Z,12.40
2018-12-05T06:30:45.880Z,14.40
2018-12-05T06:31:45.856Z,12.50
2018-12-05T06:32:45.833Z,12.10
2018-12-05T06:33:45.808Z,13.10
2018-12-05T06:34:45.782Z,9.70
2018-12-05T06:35:45.767Z,12.10
2018-12-05T06:36:45.739Z,11.10
2018-12-05T06:37:45.711Z,10.50
2018-12-05T06:38:45.693Z,11.00
2018-12-05T06:39:45.670Z,13.00
2018-12-05T06:40:45.640Z,16.00
2018-12-05T06:41:45.619Z,12.40
2018-12-05T06:42:45.597Z,10.60
2018-12-05T06:43:45.578Z,11.40
2018-12-05T06:44:45.556Z,13.60
2018-12-05T06:45:45.523Z,13.80
2018-12-05T06:46:45.511Z,14.40
2018-12-05T06:47:45.478Z,10.60
2018-12-05T06:48:45.454Z,12.70
2018-12-05T06:49:45.434Z,11.70
2018-12-05T06:50:45.406Z,12.60
2018-12-05T06:51:45.386Z,10.90
2018-12-05T06:52:45.363Z,12.70
2018-12-05T06:53:45.336Z,12.70
2018-12-05T06:54:45.319Z,14.50
2018-12-05T06:55:45.297Z,10.60
2018-12-05T06:56:45.270Z,9.30
2018-12-05T06:57:45.241Z,9.80
2018-12-05T06:58:45.221Z,12.90
2018-12-05T06:59:45.194Z,12.50
2018-12-05T07:00:45.174Z,12.20
2018-12-05T07:01:45.149Z,10.00
2018-12-05T07:02:45.125Z,10.20
2018-12-05T07:03:45.104Z,14.90
2018-12-05T07:04:45.081Z,16.40
2018-12-05T07:05:45.053Z,16.40
2018-12-05T07:06:45.035Z,17.40
2018-12-05T07:07:45.013Z,14.70
2018-12-05T07:08:44.983Z,13.60
2018-12-05T07:09:44.962Z,12.60
2018-12-05T07:10:44.936Z,12.20
2018-12-05T07:11:44.915Z,14.30
2018-12-05T07:12:44.888Z,13.70
2018-12-05T07:13:44.871Z,11.70
2018-12-05T07:14:44.843Z,12.60
2018-12-05T07:15:44.817Z,10.80
2018-12-05T07:16:44.794Z,12.80
2018-12-05T07:17:44.775Z,12.10
2018-12-05T07:18:44.743Z,17.70
2018-12-05T07:19:44.725Z,17.50
2018-12-05T07:20:44.701Z,15.70
2018-12-05T07:21:44.678Z,12.50
2018-12-05T07:22:44.653Z,12.40
2018-12-05T07:23:44.627Z,16.00
2018-12-05T07:24:44.605Z,14.70
2018-12-05T07:25:44.583Z,16.30
2018-12-05T07:26:44.565Z,18.00
2018-12-05T07:27:44.535Z,17.70
2018-12-05T07:28:44.517Z,15.80
2018-12-05T07:29:44.490Z,17.50
2018-12-05T07:30:44.476Z,14.30
2018-12-05T07:31:44.441Z,15.80
2018-12-05T07:32:44.424Z,14.10
2018-12-05T07:33:44.393Z,13.60
2018-12-05T07:34:44.380Z,12.80
2018-12-05T07:35:44.349Z,15.80
2018-12-05T07:36:44.327Z,14.50
2018-12-05T07:37:44.301Z,17.40
2018-12-05T07:38:44.277Z,15.00
2018-12-05T07:39:44.253Z,15.00
2018-12-05T07:40:44.232Z,14.70
2018-12-05T07:41:44.207Z,13.60
2018-12-05T07:42:44.192Z,15.20
2018-12-05T07:43:44.161Z,11.40
2018-12-05T07:44:44.136Z,14.00
2018-12-05T07:45:44.113Z,18.90
2018-12-05T07:46:44.087Z,16.80
2018-12-05T07:47:44.066Z,16.90
2018-12-05T07:48:44.043Z,17.00
2018-12-05T07:49:44.017Z,18.10
2018-12-05T07:50:44.000Z,16.40
2018-12-05T07:51:43.975Z,18.40
2018-12-05T07:52:43.950Z,18.60
2018-12-05T07:53:43.926Z,19.00
2018-12-05T07:54:43.905Z,19.10
2018-12-05T07:55:43.879Z,19.60
2018-12-05T07:56:43.851Z,16.60
2018-12-05T07:57:43.840Z,18.30
2018-12-05T07:58:43.808Z,17.00
2018-12-05T07:59:43.784Z,18.40
2018-12-05T08:00:43.767Z,17.80
2018-12-05T08:01:43.735Z,23.30
2018-12-05T08:02:43.714Z,18.20
2018-12-05T08:03:44.015Z,21.60
2018-12-05T08:04:43.667Z,22.10
2018-12-05T08:05:43.643Z,22.10
2018-12-05T08:06:43.619Z,23.00
2018-12-05T08:07:43.595Z,22.70
2018-12-05T08:08:43.580Z,20.40
2018-12-05T08:09:43.557Z,26.00
2018-12-05T08:10:43.527Z,19.40
2018-12-05T08:11:43.503Z,17.70
2018-12-05T08:12:43.480Z,21.40
2018-12-05T08:13:43.454Z,23.80
2018-12-05T08:14:43.432Z,19.00
2018-12-05T08:15:43.410Z,17.20
2018-12-05T08:16:43.385Z,19.50
2018-12-05T08:17:43.367Z,16.80
2018-12-05T08:18:43.345Z,17.10
2018-12-05T08:19:43.326Z,14.40
2018-12-05T08:20:43.298Z,14.60
2018-12-05T08:21:43.268Z,16.80
2018-12-05T08:22:43.250Z,18.40
2018-12-05T08:23:43.221Z,14.00
2018-12-05T08:24:43.202Z,20.10
2018-12-05T08:25:43.176Z,16.10
2018-12-05T08:26:43.153Z,15.60
2018-12-05T08:27:43.132Z,10.90
2018-12-05T08:28:43.106Z,14.20
2018-12-05T08:29:43.087Z,13.60
2018-12-05T08:30:43.059Z,12.70
2018-12-05T08:31:43.038Z,14.70
2018-12-05T08:32:43.014Z,14.80
2018-12-05T08:33:42.991Z,13.60
2018-12-05T08:34:42.967Z,12.30
2018-12-05T08:35:42.945Z,13.20
2018-12-05T08:36:42.923Z,11.60
2018-12-05T08:37:42.898Z,12.70
2018-12-05T08:38:42.875Z,15.10
2018-12-05T08:39:42.852Z,12.40
2018-12-05T08:40:42.829Z,14.30
2018-12-05T08:41:42.807Z,13.00
2018-12-05T08:42:42.791Z,13.00
2018-12-05T08:43:44.559Z,13.00
2018-12-05T08:44:42.741Z,10.80
2018-12-05T08:45:42.777Z,13.50
2018-12-05T08:46:42.693Z,13.70
2018-12-05T08:47:42.667Z,14.70
2018-12-05T08:48:42.649Z,10.40
2018-12-05T08:49:42.620Z,10.70
2018-12-05T08:50:42.601Z,11.60
2018-12-05T08:51:42.575Z,14.60
2018-12-05T08:52:42.551Z,9.70
2018-12-05T08:53:42.529Z,11.70
2018-12-05T08:54:42.507Z,12.00
2018-12-05T08:55:42.484Z,14.50
2018-12-05T08:56:42.464Z,12.80
2018-12-05T08:57:42.441Z,9.70
2018-12-05T08:58:42.414Z,11.80
2018-12-05T08:59:42.394Z,11.10
2018-12-05T09:00:42.374Z,10.90
2018-12-05T09:01:42.352Z,9.00
2018-12-05T09:02:42.328Z,11.10
2018-12-05T09:03:42.301Z,9.80
2018-12-05T09:04:42.281Z,9.00
2018-12-05T09:05:42.260Z,9.40
2018-12-05T09:06:42.233Z,9.70
2018-12-05T09:07:42.210Z,8.80
2018-12-05T09:08:42.194Z,9.40
2018-12-05T09:09:42.169Z,10.20
2018-12-05T09:10:42.144Z,14.60
2018-12-05T09:11:42.127Z,11.50
2018-12-05T09:12:42.099Z,12.30
2018-12-05T09:13:42.076Z,8.40
2018-12-05T09:14:42.052Z,8.20
2018-12-05T09:15:42.037Z,7.40
2018-12-05T09:16:42.009Z,8.70
2018-12-05T09:17:41.992Z,7.60
2018-12-05T09:18:41.964Z,8.20
2018-12-05T09:19:41.950Z,8.40
2018-12-05T09:20:41.924Z,8.40
2018-12-05T09:21:41.901Z,8.70
2018-12-05T09:22:41.890Z,7.30
2018-12-05T09:23:41.859Z,9.50
2018-12-05T09:24:41.842Z,6.60
2018-12-05T09:25:41.814Z,8.50
2018-12-05T09:26:41.797Z,6.90
2018-12-05T09:27:41.776Z,9.80
2018-12-05T09:28:41.757Z,8.90
2018-12-05T09:29:41.732Z,8.30
2018-12-05T09:30:41.715Z,7.90
2018-12-05T09:31:41.693Z,8.80
2018-12-05T09:32:41.679Z,9.70
2018-12-05T09:33:41.648Z,8.00
2018-12-05T09:34:41.629Z,8.40
2018-12-05T09:35:41.615Z,7.10
2018-12-05T09:36:41.590Z,8.70
2018-12-05T09:37:41.568Z,6.90
2018-12-05T09:38:41.548Z,12.40
2018-12-05T09:39:41.525Z,8.90
2018-12-05T09:40:41.514Z,8.80
2018-12-05T09:41:41.489Z,7.30
2018-12-05T09:42:41.473Z,8.50
2018-12-05T09:43:41.453Z,11.80
2018-12-05T09:44:41.432Z,8.10
2018-12-05T09:45:41.409Z,7.40
2018-12-05T09:46:41.391Z,9.10
2018-12-05T09:47:41.378Z,9.10
2018-12-05T09:48:41.364Z,8.40
2018-12-05T09:49:41.336Z,8.00
2018-12-05T09:50:41.313Z,8.70
2018-12-05T09:51:41.293Z,8.50
2018-12-05T09:52:41.274Z,7.40
2018-12-05T09:53:41.256Z,8.70
2018-12-05T09:54:41.240Z,9.10
2018-12-05T09:55:41.218Z,9.00
2018-12-05T09:56:41.202Z,10.00
2018-12-05T09:57:41.187Z,7.30
2018-12-05T09:58:41.164Z,7.60
2018-12-05T09:59:41.147Z,9.10
2018-12-05T10:00:41.126Z,10.00
2018-12-05T10:01:41.108Z,7.00
2018-12-05T10:02:41.087Z,8.40
2018-12-05T10:03:41.071Z,7.20
2018-12-05T10:04:41.051Z,7.40
2018-12-05T10:05:41.030Z,9.80
2018-12-05T10:06:41.010Z,6.60
2018-12-05T10:07:40.990Z,6.90
2018-12-05T10:08:40.976Z,7.50
2018-12-05T10:09:40.955Z,8.60
2018-12-05T10:10:40.935Z,9.50
2018-12-05T10:11:40.921Z,7.20
2018-12-05T10:12:40.900Z,6.90
2018-12-05T10:13:40.889Z,7.50
2018-12-05T10:14:40.861Z,9.40
2018-12-05T10:15:40.845Z,7.50
2018-12-05T10:16:40.827Z,9.80
2018-12-05T10:17:40.805Z,8.90
2018-12-05T10:18:40.787Z,6.80
2018-12-05T10:19:40.771Z,10.00
2018-12-05T10:20:40.757Z,7.70
2018-12-05T10:21:40.735Z,8.80
2018-12-05T10:22:40.717Z,8.40
2018-12-05T10:23:40.696Z,8.40
2018-12-05T10:24:40.677Z,6.40
2018-12-05T10:25:40.660Z,9.30
2018-12-05T10:26:40.639Z,8.20
2018-12-05T10:27:40.622Z,9.30
2018-12-05T10:28:40.605Z,5.80
2018-12-05T10:29:40.583Z,8.20
2018-12-05T10:30:40.571Z,7.90
2018-12-05T10:31:43.915Z,7.60
2018-12-05T10:32:40.535Z,6.40
2018-12-05T10:33:40.516Z,7.80
2018-12-05T10:34:40.495Z,7.90
2018-12-05T10:35:40.475Z,7.80
2018-12-05T10:36:40.461Z,8.20
2018-12-05T10:37:40.440Z,8.90
2018-12-05T10:38:40.424Z,8.10
2018-12-05T10:39:40.403Z,8.40
2018-12-05T10:40:40.385Z,8.50
2018-12-05T10:41:40.374Z,7.50
2018-12-05T10:42:40.352Z,8.80
2018-12-05T10:43:40.338Z,8.40
2018-12-05T10:44:40.314Z,6.90
2018-12-05T10:45:40.292Z,10.00
2018-12-05T10:46:40.283Z,7.00
2018-12-05T10:47:40.261Z,10.20
2018-12-05T10:48:40.719Z,9.60
2018-12-05T10:49:40.240Z,10.70
2018-12-05T10:50:40.207Z,10.40
2018-12-05T10:51:40.184Z,8.30
2018-12-05T10:52:40.170Z,11.40
2018-12-05T10:53:40.149Z,9.40
2018-12-05T10:54:40.134Z,8.40
2018-12-05T10:55:40.114Z,9.40
2018-12-05T10:56:40.102Z,10.40
2018-12-05T10:57:40.082Z,8.70
2018-12-05T10:58:40.058Z,8.30
2018-12-05T10:59:40.040Z,8.00
2018-12-05T11:00:40.029Z,8.70
2018-12-05T11:01:40.007Z,7.60
2018-12-05T11:02:39.989Z,8.00
2018-12-05T11:03:39.972Z,6.70
2018-12-05T11:04:39.960Z,8.50
2018-12-05T11:05:39.933Z,6.40
2018-12-05T11:06:39.913Z,6.60
2018-12-05T11:07:39.897Z,11.50
2018-12-05T11:08:39.879Z,11.00
2018-12-05T11:09:39.862Z,8.90
2018-12-05T11:10:39.846Z,7.30
2018-12-05T11:11:39.820Z,9.80
2018-12-05T11:12:39.805Z,8.10
2018-12-05T11:13:39.790Z,9.40
2018-12-05T11:14:39.774Z,8.50
2018-12-05T11:15:39.749Z,7.40
2018-12-05T11:16:39.730Z,7.40
2018-12-05T11:17:39.715Z,8.10
2018-12-05T11:18:39.692Z,9.00
2018-12-05T11:19:39.674Z,6.70
2018-12-05T11:20:39.656Z,7.90
2018-12-05T11:21:39.637Z,8.10
2018-12-05T11:22:39.629Z,8.40
2018-12-05T11:23:39.601Z,7.30
2018-12-05T11:24:39.585Z,7.90
2018-12-05T11:25:39.564Z,7.60
2018-12-05T11:26:39.545Z,7.70
2018-12-05T11:27:39.632Z,10.10
2018-12-05T11:28:39.514Z,8.50
2018-12-05T11:29:39.494Z,7.30
2018-12-05T11:30:39.475Z,8.40
2018-12-05T11:31:39.457Z,7.30
2018-12-05T11:32:39.436Z,8.10
2018-12-05T11:33:39.421Z,8.30
2018-12-05T11:34:39.403Z,9.80
2018-12-05T11:35:39.380Z,9.90
2018-12-05T11:36:39.365Z,8.80
2018-12-05T11:37:39.343Z,9.90
2018-12-05T11:38:39.326Z,8.20
2018-12-05T11:39:39.305Z,7.10
2018-12-05T11:40:39.290Z,8.10
2018-12-05T11:41:39.268Z,9.40
2018-12-05T11:42:39.250Z,8.00
2018-12-05T11:43:39.233Z,9.50
2018-12-05T11:44:39.217Z,8.30
2018-12-05T11:45:39.197Z,8.30
2018-12-05T11:46:39.177Z,8.50
2018-12-05T11:47:39.161Z,7.00
2018-12-05T11:48:39.158Z,9.80
2018-12-05T11:49:39.129Z,9.10
2018-12-05T11:50:39.098Z,9.70
2018-12-05T11:51:39.085Z,10.40
2018-12-05T11:52:39.064Z,8.00
2018-12-05T11:53:39.047Z,7.60
2018-12-05T11:54:39.031Z,6.70
2018-12-05T11:55:39.005Z,7.00
2018-12-05T11:56:38.991Z,8.80
2018-12-05T11:57:38.965Z,7.70
2018-12-05T11:58:38.951Z,7.40
2018-12-05T11:59:38.934Z,8.70
2018-12-05T12:00:38.911Z,9.80
2018-12-05T12:01:38.897Z,7.10
2018-12-05T12:02:38.876Z,8.00
2018-12-05T12:03:38.855Z,7.10
2018-12-05T12:04:38.837Z,8.10
2018-12-05T12:05:38.819Z,8.10
2018-12-05T12:06:38.800Z,6.80
2018-12-05T12:07:38.783Z,9.20
2018-12-05T12:08:38.795Z,8.90
2018-12-05T12:09:38.746Z,7.40
2018-12-05T12:10:38.723Z,10.90
2018-12-05T12:11:38.706Z,8.30
2018-12-05T12:12:38.702Z,7.30
2018-12-05T12:13:38.664Z,9.60
2018-12-05T12:14:38.646Z,8.60
2018-12-05T12:15:38.629Z,9.90
2018-12-05T12:16:38.611Z,8.60
2018-12-05T12:17:38.589Z,7.20
2018-12-05T12:18:38.571Z,9.00
2018-12-05T12:19:38.553Z,11.80
2018-12-05T12:20:38.534Z,6.70
2018-12-05T12:21:38.515Z,6.50
2018-12-05T12:22:38.494Z,8.40
2018-12-05T12:23:38.478Z,6.60
2018-12-05T12:24:38.458Z,8.50
2018-12-05T12:25:38.438Z,8.20
2018-12-05T12:26:38.417Z,8.70
2018-12-05T12:27:38.396Z,8.10
2018-12-05T12:28:38.381Z,5.60
2018-12-05T12:29:38.361Z,7.20
2018-12-05T12:30:38.391Z,7.10
2018-12-05T12:31:38.323Z,8.10
2018-12-05T12:32:38.299Z,8.40
2018-12-05T12:33:38.283Z,6.40
2018-12-05T12:34:38.265Z,6.80
2018-12-05T12:35:38.241Z,7.20
2018-12-05T12:36:38.225Z,7.10
2018-12-05T12:37:38.203Z,7.40
2018-12-05T12:38:38.186Z,5.90
2018-12-05T12:39:38.169Z,9.20
2018-12-05T12:40:38.149Z,7.10
2018-12-05T12:41:38.126Z,7.70
2018-12-05T12:42:38.109Z,7.50
2018-12-05T12:43:38.089Z,8.40
2018-12-05T12:44:38.066Z,8.90
2018-12-05T12:45:38.047Z,6.60
2018-12-05T12:46:38.025Z,7.70
2018-12-05T12:47:38.014Z,7.90
2018-12-05T12:48:39.498Z,8.00
2018-12-05T12:49:37.975Z,8.50
2018-12-05T12:50:37.953Z,7.80
2018-12-05T12:51:37.930Z,8.30
2018-12-05T12:52:37.911Z,6.70
2018-12-05T12:53:37.892Z,8.10
2018-12-05T12:54:37.870Z,8.70
2018-12-05T12:55:37.856Z,8.50
2018-12-05T12:56:37.833Z,6.20
2018-12-05T12:57:37.811Z,7.60
2018-12-05T12:58:37.797Z,7.00
2018-12-05T12:59:37.778Z,7.20
2018-12-05T13:00:37.764Z,6.90
2018-12-05T13:01:37.731Z,6.10
2018-12-05T13:02:37.716Z,4.70
2018-12-05T13:03:37.697Z,7.60
2018-12-05T13:04:37.679Z,7.10
2018-12-05T13:05:37.662Z,7.10
2018-12-05T13:06:37.635Z,9.10
2018-12-05T13:07:37.623Z,7.00
2018-12-05T13:08:37.599Z,6.70
2018-12-05T13:09:37.579Z,7.90
2018-12-05T13:10:37.554Z,6.70